Zvartnots International Airport
UDYZ : now visible

Airfield :











YOU CAN JOIN US ON...

 
LOGIN :

Register | Disclaimer

   EN    FR    IT 

 









Legend :    VFR   Marginal VFR   IFR   Intensive IFR   Very Intensive IFR
Visi :
Ceiling :
>= 8 km
>= 3000ft
5 to 8 km
1000 to 3000 ft
1500m to 5 km
500 to 1000 ft
800 to 1500m
200 to 500 ft
< 800m
< 200 ft
Symbols :   Thunderstorms  Fog  Heavy snow  Heavy precipitations  Wind > 20 kt







- Airport Elevation : 2838 ft
- IATA code : EVN


UDYZ - Zvartnots International

CURRENT METAR :
  • 180600Z 14005KT 9999 NSC 00/M05 Q1015 R09/010070 NOSIG

EXPIRED METARs :
  • 180530Z 00000KT 9999 NSC 00/M06 Q1016 R09/010070 NOSIG
  • 180500Z 00000KT 9999 NSC M02/M05 Q1016 R09/010070 NOSIG
  • 180430Z 00000KT 9999 NSC M05/M07 Q1016 R09/010070 NOSIG
  • 180400Z 00000KT 9999 NSC M06/M08 Q1015 R09/010070 NOSIG
  • 180330Z VRB01KT 9999 NSC M06/M09 Q1016 R09/010070 NOSIG

TAF TAF UDYZ
Valid from the 18 at 06:00 until the 19 at 06:00 UTC


180505Z 1806/1906 18006KT CAVOK
TEMPO 1814/1824 28024G34KT SCT040
UDDD FIR / Asia



MET'MAP, your aeronautical weather chart ! - Copyright ORBIFLY December 2007 - Disclaimer

ORBIFLY MET'MAP TEAM :

Programming & Development : Alexandra Zaïnal
Concept & Development : Baudouin d'Aumeries
Co-Development & Prog : Marc-Olivier Méhu
Technical & hardware support : Manuel Goepfert

Contact : metmap@orbifly.com




SOURCES & CREDITS :

   NOAA       Earth
Advisory